SAS63P ENBR-ENZV
Flight info
| Callsign | SAS63P |
|---|---|
| Flight time | 0h 23m |
| Altitude | 17000 |
| Route | BEGOD |
| Aircraft | CRJ9/M-SDFGIRWY/S |
Departure
| Time | 2026-04-28 10:26 |
|---|---|
| Airport | Bergen Airport, Flesland (ENBR) |
Arrival
| Time | 2026-04-28 10:49 |
|---|---|
| Airport | Stavanger Airport, Sola (ENZV) |
| Time | Latitude | Longitude | Altitude | Speed | Heading |
|---|---|---|---|---|---|
| 2026-04-28 10:14 | 60.28621 | 5.22929 | 174 ft | 0 kts | 81° |
| 2026-04-28 10:15 | 60.28619 | 5.22907 | 174 ft | 0 kts | 81° |
| 2026-04-28 10:15 | 60.28621 | 5.22929 | 174 ft | 0 kts | 81° |
| 2026-04-28 10:15 | 60.28619 | 5.22905 | 174 ft | 0 kts | 81° |
| 2026-04-28 10:21 | 60.28618 | 5.22894 | 174 ft | 2 kts | 82° |
| 2026-04-28 10:21 | 60.28616 | 5.22862 | 172 ft | 2 kts | 82° |
| 2026-04-28 10:22 | 60.28615 | 5.22856 | 171 ft | 0 kts | 82° |
| 2026-04-28 10:23 | 60.28615 | 5.22857 | 171 ft | 1 kts | 79° |
| 2026-04-28 10:23 | 60.28622 | 5.22871 | 172 ft | 2 kts | 20° |
| 2026-04-28 10:24 | 60.28650 | 5.22828 | 171 ft | 10 kts | 306° |
| 2026-04-28 10:24 | 60.28675 | 5.22631 | 170 ft | 19 kts | 262° |
| 2026-04-28 10:24 | 60.28639 | 5.22373 | 165 ft | 18 kts | 192° |
| 2026-04-28 10:24 | 60.28497 | 5.22418 | 162 ft | 23 kts | 171° |
| 2026-04-28 10:25 | 60.28341 | 5.22471 | 157 ft | 17 kts | 172° |
| 2026-04-28 10:25 | 60.28280 | 5.22290 | 152 ft | 19 kts | 275° |
| 2026-04-28 10:25 | 60.28337 | 5.22153 | 153 ft | 0 kts | 351° |
| 2026-04-28 10:25 | 60.28382 | 5.22138 | 154 ft | 32 kts | 349° |
| 2026-04-28 10:26 | 60.28889 | 5.21968 | 162 ft | 112 kts | 350° |
| 2026-04-28 10:26 | 60.29858 | 5.21648 | 253 ft | 164 kts | 351° |
| 2026-04-28 10:26 | 60.31046 | 5.21266 | 1026 ft | 177 kts | 349° |
| 2026-04-28 10:26 | 60.32345 | 5.20827 | 1685 ft | 208 kts | 350° |
| 2026-04-28 10:27 | 60.33826 | 5.20283 | 2808 ft | 214 kts | 349° |
| 2026-04-28 10:27 | 60.35313 | 5.19765 | 4122 ft | 218 kts | 349° |
| 2026-04-28 10:27 | 60.36814 | 5.19176 | 5270 ft | 221 kts | 348° |
| 2026-04-28 10:27 | 60.38323 | 5.18572 | 6430 ft | 224 kts | 348° |
| 2026-04-28 10:28 | 60.39856 | 5.17896 | 7488 ft | 227 kts | 347° |
| 2026-04-28 10:28 | 60.41313 | 5.16684 | 8458 ft | 230 kts | 320° |
| 2026-04-28 10:28 | 60.42196 | 5.13992 | 9450 ft | 235 kts | 286° |
| 2026-04-28 10:29 | 60.41257 | 5.07751 | 11191 ft | 259 kts | 224° |
| 2026-04-28 10:29 | 60.39633 | 5.05826 | 11748 ft | 281 kts | 206° |
| 2026-04-28 10:29 | 60.37924 | 5.03805 | 12311 ft | 294 kts | 218° |
| 2026-04-28 10:29 | 60.36262 | 5.01220 | 12946 ft | 307 kts | 224° |
| 2026-04-28 10:30 | 60.34561 | 4.98486 | 13652 ft | 321 kts | 210° |
| 2026-04-28 10:30 | 60.32371 | 4.97352 | 14430 ft | 333 kts | 180° |
| 2026-04-28 10:30 | 60.30034 | 4.97702 | 15170 ft | 339 kts | 171° |
| 2026-04-28 10:30 | 60.27696 | 4.98517 | 15920 ft | 344 kts | 167° |
| 2026-04-28 10:31 | 60.25326 | 4.99514 | 16658 ft | 350 kts | 167° |
| 2026-04-28 10:31 | 60.22928 | 5.00710 | 17161 ft | 363 kts | 159° |
| 2026-04-28 10:31 | 60.20513 | 5.02594 | 17384 ft | 381 kts | 154° |
| 2026-04-28 10:31 | 60.18037 | 5.04833 | 17487 ft | 402 kts | 152° |
| 2026-04-28 10:32 | 60.15432 | 5.07291 | 17526 ft | 423 kts | 152° |
| 2026-04-28 10:32 | 60.12733 | 5.09835 | 17542 ft | 443 kts | 153° |
| 2026-04-28 10:32 | 60.09844 | 5.12283 | 17541 ft | 453 kts | 156° |
| 2026-04-28 10:32 | 60.06894 | 5.14548 | 17523 ft | 452 kts | 158° |
| 2026-04-28 10:33 | 60.03952 | 5.16778 | 17513 ft | 451 kts | 157° |
| 2026-04-28 10:33 | 60.01054 | 5.19006 | 17510 ft | 449 kts | 157° |
| 2026-04-28 10:33 | 59.98136 | 5.21311 | 17510 ft | 448 kts | 156° |
| 2026-04-28 10:33 | 59.95244 | 5.23634 | 17507 ft | 447 kts | 156° |
| 2026-04-28 10:34 | 59.92359 | 5.25968 | 17510 ft | 446 kts | 155° |
| 2026-04-28 10:34 | 59.89478 | 5.28331 | 17533 ft | 446 kts | 155° |
| 2026-04-28 10:34 | 59.86642 | 5.30656 | 17521 ft | 446 kts | 155° |
| 2026-04-28 10:34 | 59.83762 | 5.32957 | 17512 ft | 445 kts | 156° |
| 2026-04-28 10:35 | 59.80868 | 5.35251 | 17505 ft | 445 kts | 156° |
| 2026-04-28 10:35 | 59.77997 | 5.37524 | 17504 ft | 444 kts | 156° |
| 2026-04-28 10:35 | 59.75119 | 5.39792 | 17478 ft | 443 kts | 156° |
| 2026-04-28 10:35 | 59.72256 | 5.42050 | 17478 ft | 443 kts | 156° |
| 2026-04-28 10:36 | 59.69423 | 5.44276 | 17482 ft | 442 kts | 156° |
| 2026-04-28 10:36 | 59.66561 | 5.46525 | 17486 ft | 442 kts | 156° |
| 2026-04-28 10:36 | 59.63695 | 5.48773 | 17476 ft | 441 kts | 156° |
| 2026-04-28 10:36 | 59.60838 | 5.51007 | 17486 ft | 441 kts | 156° |
| 2026-04-28 10:37 | 59.58003 | 5.53223 | 17492 ft | 441 kts | 156° |
| 2026-04-28 10:37 | 59.55145 | 5.55448 | 17491 ft | 441 kts | 156° |
| 2026-04-28 10:37 | 59.52294 | 5.57663 | 17497 ft | 440 kts | 156° |
| 2026-04-28 10:37 | 59.49460 | 5.59869 | 17494 ft | 440 kts | 156° |
| 2026-04-28 10:38 | 59.46604 | 5.62083 | 17488 ft | 440 kts | 156° |
| 2026-04-28 10:38 | 59.43754 | 5.64286 | 17467 ft | 439 kts | 156° |
| 2026-04-28 10:38 | 59.40928 | 5.66469 | 17475 ft | 439 kts | 156° |
| 2026-04-28 10:38 | 59.38083 | 5.68664 | 17462 ft | 438 kts | 156° |
| 2026-04-28 10:39 | 59.35236 | 5.70856 | 17479 ft | 437 kts | 156° |
| 2026-04-28 10:39 | 59.32391 | 5.73038 | 17487 ft | 437 kts | 156° |
| 2026-04-28 10:39 | 59.29588 | 5.75187 | 17486 ft | 437 kts | 156° |
| 2026-04-28 10:39 | 59.26753 | 5.77359 | 17486 ft | 437 kts | 156° |
| 2026-04-28 10:40 | 59.23912 | 5.79530 | 17459 ft | 428 kts | 156° |
| 2026-04-28 10:40 | 59.21198 | 5.81597 | 16734 ft | 421 kts | 156° |
| 2026-04-28 10:40 | 59.18473 | 5.83672 | 15956 ft | 416 kts | 157° |
| 2026-04-28 10:40 | 59.15780 | 5.85718 | 15220 ft | 411 kts | 157° |
| 2026-04-28 10:41 | 59.13126 | 5.87728 | 14488 ft | 405 kts | 157° |
| 2026-04-28 10:41 | 59.10539 | 5.89684 | 13710 ft | 400 kts | 158° |
| 2026-04-28 10:41 | 59.07958 | 5.91636 | 12927 ft | 394 kts | 158° |
| 2026-04-28 10:41 | 59.05410 | 5.93558 | 12162 ft | 389 kts | 158° |
| 2026-04-28 10:42 | 59.02913 | 5.95448 | 11423 ft | 382 kts | 156° |
| 2026-04-28 10:42 | 59.00708 | 5.98075 | 10852 ft | 361 kts | 136° |
| 2026-04-28 10:42 | 58.98966 | 6.01313 | 10352 ft | 341 kts | 133° |
| 2026-04-28 10:42 | 58.97346 | 6.04485 | 10047 ft | 320 kts | 133° |
| 2026-04-28 10:43 | 58.95829 | 6.07487 | 9767 ft | 303 kts | 132° |
| 2026-04-28 10:43 | 58.94370 | 6.10380 | 9257 ft | 297 kts | 132° |
| 2026-04-28 10:43 | 58.92774 | 6.12747 | 8700 ft | 290 kts | 158° |
| 2026-04-28 10:43 | 58.90819 | 6.13232 | 8203 ft | 283 kts | 190° |
| 2026-04-28 10:44 | 58.88904 | 6.12480 | 7738 ft | 278 kts | 193° |
| 2026-04-28 10:44 | 58.87009 | 6.11817 | 7245 ft | 274 kts | 193° |
| 2026-04-28 10:44 | 58.85317 | 6.10309 | 6745 ft | 266 kts | 225° |
| 2026-04-28 10:44 | 58.84376 | 6.07419 | 6294 ft | 255 kts | 257° |
| 2026-04-28 10:45 | 58.83968 | 6.04121 | 5825 ft | 250 kts | 258° |
| 2026-04-28 10:45 | 58.83461 | 6.00921 | 5344 ft | 248 kts | 251° |
| 2026-04-28 10:45 | 58.82839 | 5.97807 | 4850 ft | 249 kts | 258° |
| 2026-04-28 10:45 | 58.82884 | 5.94479 | 4344 ft | 249 kts | 283° |
| 2026-04-28 10:46 | 58.83325 | 5.91284 | 3925 ft | 242 kts | 288° |
| 2026-04-28 10:46 | 58.83834 | 5.88297 | 3470 ft | 233 kts | 289° |
| 2026-04-28 10:46 | 58.84357 | 5.85432 | 3233 ft | 218 kts | 290° |
| 2026-04-28 10:46 | 58.84827 | 5.82759 | 3193 ft | 202 kts | 288° |
| 2026-04-28 10:47 | 58.85229 | 5.80210 | 3075 ft | 197 kts | 287° |
| 2026-04-28 10:47 | 58.85605 | 5.77739 | 2725 ft | 183 kts | 286° |
| 2026-04-28 10:47 | 58.85947 | 5.75488 | 2379 ft | 167 kts | 287° |
| 2026-04-28 10:47 | 58.86272 | 5.73358 | 1755 ft | 161 kts | 286° |
| 2026-04-28 10:48 | 58.86567 | 5.71339 | 1289 ft | 148 kts | 286° |
| 2026-04-28 10:48 | 58.86828 | 5.69492 | 853 ft | 135 kts | 285° |
| 2026-04-28 10:48 | 58.87078 | 5.67822 | 538 ft | 123 kts | 286° |
| 2026-04-28 10:48 | 58.87314 | 5.66276 | 308 ft | 120 kts | 287° |
| 2026-04-28 10:49 | 58.87540 | 5.64744 | 103 ft | 116 kts | 286° |
| 2026-04-28 10:49 | 58.87737 | 5.63425 | 30 ft | 79 kts | 286° |
| 2026-04-28 10:49 | 58.87814 | 5.62902 | 26 ft | 42 kts | 286° |
| 2026-04-28 10:49 | 58.87891 | 5.62498 | 23 ft | 12 kts | 342° |
| 2026-04-28 10:50 | 58.87970 | 5.62525 | 24 ft | 12 kts | 16° |
| 2026-04-28 10:50 | 58.88013 | 5.62579 | 23 ft | 11 kts | 64° |
| 2026-04-28 10:50 | 58.87999 | 5.62752 | 26 ft | 13 kts | 106° |
| 2026-04-28 10:50 | 58.87990 | 5.62943 | 25 ft | 16 kts | 79° |
| 2026-04-28 10:51 | 58.88056 | 5.63147 | 26 ft | 20 kts | 45° |
| 2026-04-28 10:51 | 58.88179 | 5.63298 | 28 ft | 22 kts | 8° |
| 2026-04-28 10:51 | 58.88300 | 5.63265 | 28 ft | 10 kts | 345° |
| 2026-04-28 10:51 | 58.88330 | 5.63177 | 27 ft | 10 kts | 255° |
| 2026-04-28 10:52 | 58.88319 | 5.63098 | 23 ft | 0 kts | 255° |